Time;durP1;ratioP1;P1;durP2;ratioP2;P2;SDS_P1;SDS_P2;PMS_P1;PMS_P2;Temp;Humidity;BMP_temperature;BMP_pressure;BME280_temperature;BME280_humidity;BME280_pressure;Samples;Min_cycle;Max_cycle;Signal;HPM_P1;HPM_P2
2022/03/22 00:39:50;;;;;;;442.90;128.23;;;;;;;-2.26;68.50;100602.31;6240848;22;20038;-63
2022/03/22 02:20:03;;;;;;;438.33;121.45;;;;;;;-2.61;70.52;100567.41;6235793;23;20023;-62
2022/03/22 03:01:57;;;;;;;433.38;113.47;;;;;;;-2.98;68.98;100580.09;6264669;22;20022;-65
2022/03/22 03:04:23;;;;;;;434.10;119.97;;;;;;;-3.00;70.36;100575.72;6235869;23;20066;-64
2022/03/22 03:10:16;;;;;;;428.80;112.70;;;;;;;-3.14;73.67;100571.47;6238276;23;20450;-65
2022/03/22 03:19:25;;;;;;;431.92;116.85;;;;;;;-3.32;77.00;100576.13;6238337;23;20019;-64
2022/03/22 04:02:12;;;;;;;433.65;115.32;;;;;;;-3.15;79.39;100582.25;6234593;22;20765;-64
2022/03/22 04:04:40;;;;;;;429.03;114.73;;;;;;;-3.18;81.47;100584.59;6232892;23;20005;-64
2022/03/22 06:01:51;;;;;;;446.15;126.65;;;;;;;-1.27;72.29;100641.97;6238732;23;20472;-64
2022/03/22 06:04:16;;;;;;;445.70;131.05;;;;;;;-1.07;71.17;100641.50;6255899;22;20024;-66
2022/03/22 06:06:42;;;;;;;445.83;135.00;;;;;;;-1.04;70.01;100629.09;6263914;22;20014;-60
2022/03/22 06:12:52;;;;;;;447.10;134.77;;;;;;;-0.53;66.33;100639.69;6269014;22;20073;-70
2022/03/22 06:15:20;;;;;;;451.13;138.88;;;;;;;-0.34;64.97;100638.19;6264728;22;20111;-69
2022/03/22 06:18:15;;;;;;;449.85;132.65;;;;;;;-0.01;64.27;100647.63;6266273;22;20055;-69
2022/03/22 06:20:41;;;;;;;450.25;136.57;;;;;;;0.00;63.78;100616.63;6244730;22;20525;-69
2022/03/22 06:23:10;;;;;;;453.75;139.00;;;;;;;0.34;60.99;100631.91;6269092;22;20522;-68
2022/03/22 06:25:35;;;;;;;455.42;145.45;;;;;;;0.67;59.25;100645.44;6264677;22;20095;-69
2022/03/22 06:28:01;;;;;;;457.73;148.37;;;;;;;0.73;58.14;100630.59;6269157;22;20074;-68
2022/03/22 06:30:27;;;;;;;468.57;154.60;;;;;;;1.00;56.94;100644.66;6270009;22;20392;-68
2022/03/22 06:33:01;;;;;;;464.70;156.63;;;;;;;1.05;56.31;100623.03;6266448;22;20012;-68
2022/03/22 06:35:29;;;;;;;470.23;166.57;;;;;;;1.32;54.76;100634.50;6265508;22;20024;-69
2022/03/22 06:37:55;;;;;;;474.40;166.18;;;;;;;1.58;54.10;100640.84;6269631;22;20370;-69
2022/03/22 06:40:23;;;;;;;469.85;168.38;;;;;;;1.89;53.63;100652.44;6269213;22;20012;-67
2022/03/22 06:42:49;;;;;;;476.33;175.10;;;;;;;1.96;52.95;100641.81;6264269;22;20015;-69
2022/03/22 06:45:15;;;;;;;470.87;168.57;;;;;;;2.23;51.87;100649.03;6265903;22;20019;-68
2022/03/22 06:47:42;;;;;;;472.42;173.70;;;;;;;2.37;51.33;100651.34;6271305;22;20011;-68
2022/03/22 06:50:10;;;;;;;471.95;179.68;;;;;;;2.47;50.84;100639.16;6270322;22;20042;-66
2022/03/22 06:52:36;;;;;;;477.00;187.47;;;;;;;2.74;50.63;100660.66;6265071;22;20059;-63
2022/03/22 06:55:03;;;;;;;473.63;183.00;;;;;;;2.80;49.75;100657.53;6266327;22;20214;-66
2022/03/22 06:57:29;;;;;;;473.80;189.43;;;;;;;2.82;50.06;100640.75;6271062;22;20146;-65
2022/03/22 07:00:06;;;;;;;480.80;202.00;;;;;;;2.89;49.88;100632.59;6269654;22;20281;-65
2022/03/22 07:02:32;;;;;;;481.00;199.73;;;;;;;3.20;49.39;100668.59;6263409;22;20023;-67
2022/03/22 07:04:57;;;;;;;484.60;208.33;;;;;;;3.25;49.23;100666.28;6267581;22;20557;-66
2022/03/22 07:07:23;;;;;;;476.97;202.37;;;;;;;3.32;49.39;100655.59;6269677;22;20062;-67
2022/03/22 07:09:48;;;;;;;483.17;209.87;;;;;;;3.50;48.86;100642.81;6269789;22;20008;-66
2022/03/22 07:12:14;;;;;;;479.57;218.90;;;;;;;3.69;48.73;100668.16;6263864;22;20026;-64
2022/03/22 07:14:40;;;;;;;484.53;215.33;;;;;;;3.79;48.67;100660.09;6269269;22;20011;-66
2022/03/22 07:17:08;;;;;;;483.97;227.57;;;;;;;3.96;47.96;100661.63;6269571;22;20057;-66
2022/03/22 07:19:34;;;;;;;484.63;230.97;;;;;;;4.08;47.23;100664.66;6268686;22;20598;-66
2022/03/22 07:22:01;;;;;;;490.83;247.13;;;;;;;4.30;47.69;100661.28;6264965;22;20685;-65
2022/03/22 07:24:27;;;;;;;489.20;238.07;;;;;;;4.50;46.68;100665.44;6266860;22;20231;-67
2022/03/22 07:26:52;;;;;;;491.03;235.43;;;;;;;4.58;46.67;100656.41;6268464;22;20214;-66
2022/03/22 07:29:18;;;;;;;496.93;248.57;;;;;;;4.76;46.19;100651.16;6265329;22;20015;-66
2022/03/22 07:31:43;;;;;;;492.67;257.83;;;;;;;5.01;45.72;100666.47;6263776;22;20015;-66
2022/03/22 07:34:11;;;;;;;489.57;254.30;;;;;;;5.02;45.27;100636.84;6269171;22;20019;-67
2022/03/22 07:36:39;;;;;;;499.87;260.70;;;;;;;5.25;45.69;100663.97;6269583;22;20029;-67
2022/03/22 07:39:05;;;;;;;500.63;269.67;;;;;;;5.36;44.74;100667.72;6267126;22;20226;-66
2022/03/22 07:41:30;;;;;;;498.93;281.37;;;;;;;5.56;45.50;100675.19;6265405;22;20569;-66
2022/03/22 07:43:56;;;;;;;497.27;274.87;;;;;;;5.64;45.56;100667.00;6270142;22;20755;-67
2022/03/22 07:46:23;;;;;;;500.40;273.77;;;;;;;5.75;44.34;100663.13;6270942;22;20035;-67
2022/03/22 07:48:50;;;;;;;500.53;284.87;;;;;;;5.86;44.05;100646.53;6266110;22;20093;-65
2022/03/22 07:54:00;;;;;;;504.47;291.40;;;;;;;6.14;43.74;100643.19;6270684;22;20233;-67
2022/03/22 07:56:26;;;;;;;501.77;305.40;;;;;;;6.32;44.17;100642.91;6272308;22;20219;-65
2022/03/22 07:58:51;;;;;;;507.20;313.80;;;;;;;6.42;43.79;100653.38;6266734;22;20337;-66
2022/03/22 08:01:16;;;;;;;505.60;312.80;;;;;;;6.55;43.25;100641.00;6269711;22;20058;-67
2022/03/22 08:03:42;;;;;;;510.03;324.97;;;;;;;6.68;43.35;100643.97;6269568;22;20312;-66
2022/03/22 08:06:07;;;;;;;513.10;334.43;;;;;;;6.87;43.48;100636.00;6272202;22;20054;-65
2022/03/22 08:08:34;;;;;;;514.27;345.53;;;;;;;7.11;42.52;100648.59;6266855;22;20020;-66
2022/03/22 08:11:00;;;;;;;509.10;335.50;;;;;;;7.15;41.48;100624.88;6270450;22;20381;-66
2022/03/22 08:13:26;;;;;;;512.30;350.77;;;;;;;7.34;40.46;100644.94;6269334;22;20230;-66
2022/03/22 08:15:52;;;;;;;513.00;363.23;;;;;;;7.66;39.23;100645.78;6272443;22;20230;-66
2022/03/22 08:18:17;;;;;;;516.27;367.57;;;;;;;7.67;38.82;100631.34;6266808;22;20952;-66
2022/03/22 08:20:43;;;;;;;514.73;370.07;;;;;;;7.93;38.56;100643.03;6270969;22;20432;-67
2022/03/22 08:23:09;;;;;;;518.70;381.60;;;;;;;8.07;38.26;100639.09;6270602;22;20004;-67
2022/03/22 08:25:40;;;;;;;520.57;397.67;;;;;;;8.16;38.55;100646.13;6271388;22;20035;-66
2022/03/22 08:28:08;;;;;;;522.73;404.70;;;;;;;8.25;38.00;100644.66;6266175;22;20227;-66
2022/03/22 08:30:34;;;;;;;525.00;412.10;;;;;;;8.25;38.26;100629.31;6270915;22;20351;-67
2022/03/22 08:33:06;;;;;;;524.37;418.07;;;;;;;8.44;37.94;100643.41;6270650;22;20241;-66
2022/03/22 08:35:32;;;;;;;526.27;427.73;;;;;;;8.51;37.47;100626.50;6270543;22;20254;-66
2022/03/22 08:37:58;;;;;;;530.27;435.90;;;;;;;8.68;37.05;100637.94;6266101;22;20624;-65
2022/03/22 08:40:23;;;;;;;531.60;442.63;;;;;;;8.75;37.18;100629.56;6271753;22;20222;-66
2022/03/22 08:42:52;;;;;;;531.60;439.53;;;;;;;8.95;37.07;100638.50;6271530;22;20023;-66
2022/03/22 08:45:23;;;;;;;527.90;437.07;;;;;;;9.04;36.00;100622.44;6269035;22;20003;-66
2022/03/22 08:47:50;;;;;;;533.43;450.43;;;;;;;9.12;36.84;100619.19;6265968;22;20475;-66
2022/03/22 08:50:21;;;;;;;530.77;464.40;;;;;;;9.27;35.69;100621.19;6271797;22;20285;-66
2022/03/22 08:52:47;;;;;;;535.87;474.90;;;;;;;9.44;35.14;100629.16;6272004;22;20225;-66
2022/03/22 08:55:15;;;;;;;539.50;480.00;;;;;;;9.63;36.00;100628.66;6267234;22;20218;-66
2022/03/22 08:57:42;;;;;;;551.40;491.40;;;;;;;9.82;35.07;100611.88;6266323;22;21215;-66
2022/03/22 09:00:11;;;;;;;550.47;490.83;;;;;;;10.15;34.22;100616.66;6271119;22;20218;-66
2022/03/22 09:02:38;;;;;;;567.47;507.20;;;;;;;10.13;33.29;100597.84;6271598;22;20258;-66
2022/03/22 09:07:50;;;;;;;565.45;505.40;;;;;;;10.53;32.43;100595.00;6268321;22;20225;-64
2022/03/22 09:10:18;;;;;;;590.37;529.43;;;;;;;10.76;32.40;100614.09;6271333;22;20014;-65
2022/03/22 09:12:43;;;;;;;598.20;536.13;;;;;;;10.78;32.00;100591.88;6270243;22;20652;-66
2022/03/22 09:15:11;;;;;;;611.00;548.93;;;;;;;11.01;31.86;100607.53;6266429;22;20226;-67
2022/03/22 09:17:37;;;;;;;607.63;546.50;;;;;;;11.03;32.15;100569.94;6269163;22;20011;-66
2022/03/22 09:20:02;;;;;;;630.63;569.07;;;;;;;11.27;30.38;100600.97;6271048;22;20385;-65
2022/03/22 09:22:28;;;;;;;637.27;575.30;;;;;;;11.37;30.14;100586.53;6267497;22;20250;-66
2022/03/22 09:24:53;;;;;;;649.67;586.97;;;;;;;11.42;30.71;100578.00;6265882;22;20016;-66
2022/03/22 09:27:19;;;;;;;638.10;576.33;;;;;;;11.61;30.33;100594.44;6268926;22;20445;-66
2022/03/22 09:29:44;;;;;;;649.97;585.80;;;;;;;11.87;30.37;100598.09;6272087;22;20000;-66
2022/03/22 09:32:09;;;;;;;671.33;603.83;;;;;;;11.81;30.25;100592.91;6267012;22;20405;-66
2022/03/22 09:34:35;;;;;;;679.60;615.13;;;;;;;11.94;31.53;100582.72;6266107;22;20015;-66
2022/03/22 09:37:01;;;;;;;678.63;616.03;;;;;;;11.99;30.42;100584.47;6268968;22;20449;-65
2022/03/22 09:39:26;;;;;;;688.70;625.13;;;;;;;12.09;30.00;100583.69;6272215;22;20438;-66
2022/03/22 09:41:51;;;;;;;685.17;620.80;;;;;;;12.16;29.04;100590.59;6240042;22;20012;-65
2022/03/22 09:44:18;;;;;;;693.43;628.53;;;;;;;11.96;29.74;100589.59;6265948;22;20012;-65
2022/03/22 09:46:46;;;;;;;687.43;622.27;;;;;;;12.11;29.64;100583.69;6269184;22;20019;-66
2022/03/22 09:49:12;;;;;;;686.10;622.70;;;;;;;12.23;30.87;100591.47;6271791;22;20035;-66
2022/03/22 09:51:50;;;;;;;699.10;635.50;;;;;;;12.08;29.74;100571.69;6266563;22;20422;-65
2022/03/22 09:54:22;;;;;;;701.47;637.27;;;;;;;12.29;29.51;100582.09;6266828;22;20419;-66
2022/03/22 09:56:48;;;;;;;690.77;627.70;;;;;;;12.26;29.93;100570.94;6270085;22;20004;-65
2022/03/22 09:59:15;;;;;;;707.23;643.97;;;;;;;12.24;29.69;100567.47;6271347;22;20011;-66
2022/03/22 10:01:41;;;;;;;693.80;631.07;;;;;;;12.39;28.85;100577.81;6264468;22;20079;-65
2022/03/22 10:04:12;;;;;;;700.50;637.50;;;;;;;12.28;29.69;100551.19;6266829;22;20062;-65
2022/03/22 10:06:39;;;;;;;693.63;631.00;;;;;;;12.49;29.46;100574.44;6269694;22;20015;-66
2022/03/22 10:09:07;;;;;;;706.83;643.53;;;;;;;12.45;29.36;100566.72;6271443;22;20496;-66
2022/03/22 10:11:43;;;;;;;725.27;661.20;;;;;;;12.58;29.93;100571.94;6265751;22;20007;-65
2022/03/22 10:14:11;;;;;;;704.40;640.90;;;;;;;12.64;30.42;100563.38;6267541;22;20319;-65
2022/03/22 10:16:48;;;;;;;718.57;654.97;;;;;;;12.78;30.16;100566.84;6269934;22;20031;-65
2022/03/22 10:19:21;;;;;;;722.67;658.90;;;;;;;12.88;29.24;100550.56;6269334;22;20011;-65
2022/03/22 10:21:47;;;;;;;732.17;668.43;;;;;;;12.97;29.29;100563.47;6265745;22;20011;-66
2022/03/22 10:24:16;;;;;;;730.43;667.07;;;;;;;12.92;29.76;100554.88;6268947;22;20086;-66
2022/03/22 10:26:44;;;;;;;732.60;668.00;;;;;;;13.13;29.53;100566.97;6270112;22;20749;-66
2022/03/22 10:29:11;;;;;;;736.90;673.23;;;;;;;12.92;28.75;100538.56;6266911;22;20016;-66
2022/03/22 10:31:39;;;;;;;726.97;663.27;;;;;;;12.99;29.68;100550.59;6265196;22;20033;-66
2022/03/22 10:34:06;;;;;;;739.20;675.10;;;;;;;13.15;29.71;100539.50;6270142;22;20066;-66
2022/03/22 10:36:38;;;;;;;735.23;671.60;;;;;;;13.26;29.55;100536.06;6269711;22;20010;-66
2022/03/22 10:39:07;;;;;;;740.70;676.70;;;;;;;13.44;28.69;100554.97;6266856;22;20019;-66
2022/03/22 10:41:38;;;;;;;762.63;698.00;;;;;;;13.41;29.47;100539.53;6265839;22;20034;-64
2022/03/22 11:04:16;;;;;;;756.13;691.97;;;;;;;13.80;28.18;100524.00;6269020;22;20057;-64
2022/03/22 11:06:47;;;;;;;769.13;704.40;;;;;;;13.79;27.31;100508.56;6266648;22;20011;-66
2022/03/22 11:09:17;;;;;;;774.20;709.10;;;;;;;13.77;27.62;100502.53;6264941;22;20592;-65
2022/03/22 11:11:43;;;;;;;788.40;723.27;;;;;;;13.77;28.34;100502.53;6269495;22;20011;-65
2022/03/22 11:14:12;;;;;;;783.63;718.50;;;;;;;13.82;27.90;100506.84;6270984;22;20011;-66
2022/03/22 11:16:39;;;;;;;782.83;718.07;;;;;;;13.77;27.56;100505.13;6266557;22;20011;-65
2022/03/22 11:19:05;;;;;;;775.87;711.03;;;;;;;13.81;28.03;100492.22;6265793;22;20091;-65
2022/03/22 11:21:32;;;;;;;780.27;715.63;;;;;;;13.84;27.80;100487.06;6271020;22;20085;-66
2022/03/22 11:24:13;;;;;;;788.80;723.83;;;;;;;13.92;28.33;100481.91;6267974;22;19999;-65
2022/03/22 11:26:51;;;;;;;795.67;730.27;;;;;;;14.10;27.80;100495.56;6263256;22;20022;-66
2022/03/22 11:29:17;;;;;;;784.70;719.67;;;;;;;13.95;27.40;100481.88;6235647;22;20018;-65
2022/03/22 11:34:08;;;;;;;790.93;725.77;;;;;;;13.91;27.92;100483.63;6268462;22;20330;-65
2022/03/22 11:34:30;;;;;;;779.03;714.17;;;;;;;14.02;27.97;100483.56;6269140;22;20082;-65
2022/03/22 11:36:58;;;;;;;804.77;739.13;;;;;;;14.23;26.73;100478.31;6264163;22;20007;-65
2022/03/22 11:42:17;;;;;;;801.67;736.30;;;;;;;14.53;26.26;100470.47;6237038;22;20082;-65
2022/03/22 11:45:07;;;;;;;800.00;734.53;;;;;;;14.57;25.81;100468.72;6266590;22;20011;-66
2022/03/22 11:47:41;;;;;;;801.63;736.23;;;;;;;14.64;25.81;100471.25;6265687;22;20078;-66
2022/03/22 11:50:18;;;;;;;815.77;750.07;;;;;;;14.59;25.67;100447.22;6268678;22;20000;-66
2022/03/22 11:52:45;;;;;;;808.27;742.63;;;;;;;14.52;26.83;100449.81;6271162;22;20105;-66
2022/03/22 11:55:11;;;;;;;815.63;749.50;;;;;;;14.57;26.03;100466.16;6263924;22;20014;-66
2022/03/22 11:58:09;;;;;;;828.73;762.43;;;;;;;14.67;26.61;100454.91;6267121;22;20000;-66
2022/03/22 12:00:58;;;;;;;809.47;743.70;;;;;;;14.76;26.87;100435.91;6260438;22;20011;-67
2022/03/22 12:03:30;;;;;;;829.80;763.37;;;;;;;14.77;26.94;100447.94;6267357;22;20309;-65
2022/03/22 12:05:58;;;;;;;832.80;766.47;;;;;;;14.70;26.63;100434.22;6265648;22;20004;-66
2022/03/22 12:08:25;;;;;;;831.97;765.97;;;;;;;14.80;26.78;100445.34;6270289;22;20012;-62
2022/03/22 12:10:52;;;;;;;830.33;764.30;;;;;;;14.62;25.94;100421.38;6269975;22;20043;-65
2022/03/22 12:13:19;;;;;;;821.90;755.80;;;;;;;14.89;27.07;100440.13;6267032;22;20454;-65
2022/03/22 12:15:45;;;;;;;830.47;764.07;;;;;;;14.73;26.21;100434.19;6265359;22;20110;-64
2022/03/22 12:18:12;;;;;;;823.97;757.77;;;;;;;14.67;26.54;100430.81;6267373;22;20090;-65
2022/03/22 12:20:38;;;;;;;826.20;760.07;;;;;;;14.60;26.56;100422.25;6267712;22;20004;-64
2022/03/22 12:23:06;;;;;;;832.60;766.37;;;;;;;14.77;26.38;100419.53;6263947;22;20023;-64
2022/03/22 12:25:35;;;;;;;829.87;763.70;;;;;;;14.84;26.00;100429.84;6262992;22;20011;-65
2022/03/22 12:28:04;;;;;;;836.43;770.23;;;;;;;14.98;26.23;100427.97;6267806;22;20068;-66
2022/03/22 12:30:41;;;;;;;836.20;769.97;;;;;;;14.97;26.17;100428.88;6267845;22;20031;-65
2022/03/22 12:33:18;;;;;;;849.20;782.50;;;;;;;15.00;26.50;100427.97;6262331;22;20494;-65
2022/03/22 12:35:45;;;;;;;832.13;765.73;;;;;;;15.06;26.25;100415.03;6264537;22;20385;-66
2022/03/22 12:38:12;;;;;;;834.53;768.10;;;;;;;14.93;25.78;100401.34;6268446;22;20008;-66
2022/03/22 12:40:38;;;;;;;849.13;781.97;;;;;;;15.06;25.67;100412.44;6267932;22;20079;-66
2022/03/22 12:43:06;;;;;;;843.67;776.97;;;;;;;14.93;25.85;100397.91;6263412;22;20087;-64
2022/03/22 12:48:55;;;;;;;826.80;760.73;;;;;;;14.97;25.86;100384.09;6269010;22;20564;-63
2022/03/22 12:51:21;;;;;;;843.97;777.47;;;;;;;15.02;25.36;100395.25;6267923;22;20018;-65
2022/03/22 12:53:47;;;;;;;843.27;776.60;;;;;;;15.08;25.04;100400.34;6266225;22;20007;-65
2022/03/22 12:56:16;;;;;;;828.80;763.03;;;;;;;14.82;25.40;100379.06;6272316;22;20006;-67
2022/03/22 12:58:42;;;;;;;838.40;771.87;;;;;;;15.04;25.91;100393.50;6270699;22;20011;-66
2022/03/22 13:01:08;;;;;;;847.23;780.43;;;;;;;15.15;25.39;100371.00;6263880;22;20497;-64
2022/03/22 13:03:36;;;;;;;848.50;781.57;;;;;;;15.17;25.52;100374.44;6266316;22;20027;-65
2022/03/22 13:06:02;;;;;;;841.27;775.10;;;;;;;15.00;25.20;100366.00;6270526;22;20000;-64
2022/03/22 13:11:28;;;;;;;840.00;773.73;;;;;;;15.15;24.78;100368.41;6201845;23;20012;-65
2022/03/22 13:16:54;;;;;;;846.30;779.83;;;;;;;15.32;25.32;100366.53;6208218;23;20446;-63
2022/03/22 13:19:20;;;;;;;837.45;771.20;;;;;;;15.30;24.79;100357.94;6203528;23;20039;-60
2022/03/22 13:21:45;;;;;;;848.47;781.93;;;;;;;15.32;25.55;100350.19;6202288;23;20120;-60
2022/03/22 13:24:21;;;;;;;864.63;797.23;;;;;;;15.45;25.28;100352.59;6204672;23;20447;-60
2022/03/22 13:27:02;;;;;;;846.23;779.60;;;;;;;15.58;24.95;100352.47;6206974;23;20418;-60
2022/03/22 13:29:39;;;;;;;866.37;799.07;;;;;;;15.71;24.54;100351.47;6201801;23;20013;-60
2022/03/22 13:32:06;;;;;;;856.80;789.93;;;;;;;15.70;24.85;100348.03;6201549;23;20162;-60
2022/03/22 13:34:34;;;;;;;849.87;783.00;;;;;;;15.65;24.17;100346.38;6207228;23;20016;-61
2022/03/22 13:37:10;;;;;;;870.70;803.30;;;;;;;15.60;24.50;100328.34;6205483;23;20088;-60
2022/03/22 13:39:38;;;;;;;861.70;794.57;;;;;;;15.56;24.45;100336.16;6200668;23;20020;-60
2022/03/22 13:42:08;;;;;;;870.07;802.70;;;;;;;15.66;24.31;100341.19;6203281;23;20009;-60
2022/03/22 13:44:33;;;;;;;881.70;813.90;;;;;;;15.63;24.24;100324.84;6205834;23;20020;-60
2022/03/22 13:47:00;;;;;;;883.83;816.00;;;;;;;15.70;24.82;100323.91;6204061;23;20021;-61
2022/03/22 13:49:34;;;;;;;879.67;811.97;;;;;;;15.69;24.53;100324.78;6262272;22;20008;-61
2022/03/22 13:52:00;;;;;;;881.63;813.77;;;;;;;15.74;24.78;100323.00;6268993;22;20008;-60
2022/03/22 13:54:25;;;;;;;884.13;816.27;;;;;;;15.81;24.40;100334.97;6270214;22;20342;-60
2022/03/22 13:56:51;;;;;;;883.57;815.50;;;;;;;15.65;24.46;100305.88;6268291;22;20008;-60
2022/03/22 13:59:16;;;;;;;887.33;819.33;;;;;;;15.69;24.62;100302.38;6265814;22;20012;-60
2022/03/22 14:01:42;;;;;;;888.13;820.23;;;;;;;15.66;24.54;100304.16;6268817;22;20053;-60
2022/03/22 14:04:07;;;;;;;871.27;804.07;;;;;;;15.61;24.20;100314.56;6271091;22;20027;-61
2022/03/22 14:06:33;;;;;;;896.77;827.93;;;;;;;15.67;24.35;100311.00;6267921;22;20003;-61
2022/03/22 14:08:58;;;;;;;891.07;822.87;;;;;;;15.82;24.09;100316.84;6263344;22;20043;-60
2022/03/22 14:11:23;;;;;;;869.30;801.80;;;;;;;15.89;24.38;100321.06;6267476;22;20011;-61
2022/03/22 14:13:49;;;;;;;886.07;818.33;;;;;;;15.89;24.24;100315.88;6268137;22;20460;-59
2022/03/22 14:16:14;;;;;;;901.57;832.90;;;;;;;16.02;24.87;100316.56;6265096;22;20008;-58
2022/03/22 14:18:40;;;;;;;849.63;784.17;;;;;;;15.86;23.89;100309.91;6261879;22;20415;-63
2022/03/22 14:21:05;;;;;;;868.50;802.33;;;;;;;15.86;24.38;100312.50;6269821;22;20012;-62
2022/03/22 14:23:31;;;;;;;860.23;794.17;;;;;;;15.87;24.23;100312.44;6265746;22;20185;-62
2022/03/22 14:25:57;;;;;;;866.10;800.20;;;;;;;15.87;24.51;100304.69;6267388;22;20003;-60
2022/03/22 14:48:32;;;;;;;860.10;793.60;;;;;;;15.50;23.35;100293.13;6268470;22;20132;-64
2022/03/22 15:00:26;;;;;;;842.50;776.87;;;;;;;15.41;23.84;100275.09;6261738;22;20042;-64
2022/03/22 16:01:37;;;;;;;875.93;807.63;;;;;;;18.85;21.30;100258.13;6267846;22;20070;-62
2022/03/22 16:04:02;;;;;;;899.07;830.67;;;;;;;19.31;21.44;100254.28;6267818;22;20020;-65
2022/03/22 16:06:28;;;;;;;928.97;859.07;;;;;;;19.34;21.17;100243.78;6263392;22;20008;-63
2022/03/22 16:53:04;;;;;;;758.13;693.80;;;;;;;12.21;27.41;100259.75;6267089;22;20773;-59
2022/03/22 17:05:35;;;;;;;730.50;667.03;;;;;;;11.36;28.78;100259.53;6262170;22;20106;-59
2022/03/22 17:11:23;;;;;;;709.63;646.20;;;;;;;10.89;28.79;100272.13;6266856;22;20094;-59
2022/03/22 17:14:38;;;;;;;703.40;640.60;;;;;;;10.70;29.67;100269.41;6262082;22;20003;-61
2022/03/22 17:17:22;;;;;;;684.30;621.97;;;;;;;10.45;29.80;100266.69;6260636;22;20003;-61
2022/03/22 17:23:09;;;;;;;673.13;611.07;;;;;;;10.08;30.06;100269.75;6261464;22;20050;-62
2022/03/22 17:42:42;;;;;;;609.03;547.70;;;;;;;9.42;31.76;100275.03;6261243;22;20637;-64
2022/03/22 17:49:06;;;;;;;585.73;525.73;;;;;;;9.39;32.12;100280.94;6268018;22;20287;-66
2022/03/22 17:54:53;;;;;;;569.77;509.67;;;;;;;9.18;32.07;100291.78;6277645;22;20242;-68
2022/03/22 17:57:34;;;;;;;570.40;510.20;;;;;;;9.20;31.99;100285.84;6277650;22;20246;-66
2022/03/22 18:00:00;;;;;;;574.97;514.60;;;;;;;9.09;32.01;100285.69;6262595;22;20008;-68
2022/03/22 18:05:50;;;;;;;552.13;492.17;;;;;;;8.67;32.66;100298.72;6271358;22;20022;-68
2022/03/22 18:11:52;;;;;;;539.27;479.23;;;;;;;8.05;34.98;100301.06;6232868;23;20281;-67
2022/03/22 18:17:39;;;;;;;532.70;458.90;;;;;;;7.55;35.88;100312.00;6233376;23;20558;-67
2022/03/22 18:24:16;;;;;;;533.90;425.60;;;;;;;7.22;36.94;100324.91;6231243;23;20374;-67
2022/03/22 18:36:47;;;;;;;518.27;393.43;;;;;;;6.66;38.58;100305.81;6231979;23;20281;-62
2022/03/22 18:45:57;;;;;;;522.00;363.47;;;;;;;6.27;39.49;100318.44;6231887;23;20308;-68
2022/03/22 18:58:28;;;;;;;519.27;341.07;;;;;;;5.73;41.19;100311.03;6282622;22;20881;-65
2022/03/22 19:00:54;;;;;;;514.03;342.63;;;;;;;5.72;40.94;100321.19;6308601;22;20234;-67
2022/03/22 19:03:19;;;;;;;511.07;344.97;;;;;;;5.65;40.96;100316.72;6302023;22;20082;-66
2022/03/22 19:05:45;;;;;;;507.27;329.67;;;;;;;5.54;41.23;100316.44;6305738;22;20018;-68
2022/03/22 19:08:10;;;;;;;512.73;335.97;;;;;;;5.41;41.66;100324.53;6308647;22;20118;-61
2022/03/22 19:10:37;;;;;;;512.47;332.07;;;;;;;5.31;41.63;100318.31;6305944;22;20011;-62
2022/03/22 19:13:03;;;;;;;535.67;343.87;;;;;;;5.20;42.39;100317.16;6297650;22;19995;-61
2022/03/22 19:15:28;;;;;;;554.47;332.97;;;;;;;5.15;42.31;100318.69;6300240;22;20301;-61
2022/03/22 19:17:55;;;;;;;567.90;340.10;;;;;;;5.14;42.21;100323.72;6302170;22;20421;-60
2022/03/22 19:20:25;;;;;;;550.07;338.07;;;;;;;4.98;42.59;100317.31;6298939;22;20227;-61
2022/03/22 19:22:54;;;;;;;544.30;327.50;;;;;;;4.83;43.56;100319.41;6296420;22;20249;-61
2022/03/22 19:25:25;;;;;;;526.23;321.00;;;;;;;4.77;43.39;100330.22;6296555;22;20218;-60
2022/03/22 19:27:51;;;;;;;514.23;309.73;;;;;;;4.67;43.70;100323.13;6296218;22;20245;-60
2022/03/22 19:30:16;;;;;;;511.43;307.80;;;;;;;4.52;43.95;100315.91;6295311;22;20395;-63
2022/03/22 19:33:06;;;;;;;507.83;297.77;;;;;;;4.42;44.44;100324.03;6295349;22;20336;-62
2022/03/22 19:35:32;;;;;;;502.10;284.47;;;;;;;4.40;44.77;100319.72;6300408;22;20014;-61
2022/03/22 19:38:01;;;;;;;500.90;292.10;;;;;;;4.33;45.20;100330.50;6300176;22;20221;-62
2022/03/22 19:40:27;;;;;;;510.17;295.97;;;;;;;4.32;45.28;100327.09;6297117;22;20240;-62
2022/03/22 19:42:53;;;;;;;502.17;278.27;;;;;;;4.24;45.62;100333.59;6296398;22;20319;-62
2022/03/22 19:45:22;;;;;;;504.57;280.37;;;;;;;4.11;46.09;100336.53;6299397;22;20310;-62
2022/03/22 19:47:51;;;;;;;498.13;271.87;;;;;;;4.00;46.29;100333.59;6293996;22;20280;-61
2022/03/22 19:50:17;;;;;;;499.20;272.33;;;;;;;3.91;47.03;100335.81;6295105;22;20226;-62
2022/03/22 19:52:43;;;;;;;498.87;275.13;;;;;;;3.87;47.18;100333.13;6296844;22;20233;-64
2022/03/22 19:55:12;;;;;;;495.23;254.13;;;;;;;3.79;47.08;100339.59;6298675;22;20429;-62
2022/03/22 19:57:39;;;;;;;494.43;256.03;;;;;;;3.75;46.89;100330.16;6271077;22;20023;-62
2022/03/22 20:00:07;;;;;;;494.67;252.60;;;;;;;3.76;47.23;100330.22;6267441;22;20284;-61
2022/03/22 20:02:32;;;;;;;494.60;250.83;;;;;;;3.82;46.62;100330.44;6247324;22;20259;-62
2022/03/22 20:04:58;;;;;;;486.20;244.20;;;;;;;3.72;47.28;100325.00;6242622;22;20237;-63
2022/03/22 20:07:24;;;;;;;487.33;245.90;;;;;;;3.62;47.31;100328.88;6239588;22;20485;-61
2022/03/22 20:09:50;;;;;;;487.95;245.13;;;;;;;3.63;47.26;100335.66;6234931;22;20015;-62
2022/03/22 20:12:16;;;;;;;481.20;234.82;;;;;;;3.61;47.10;100328.00;6241283;22;20062;-61
2022/03/22 20:14:42;;;;;;;482.40;233.73;;;;;;;3.57;47.32;100328.69;6240874;22;20004;-61
2022/03/22 20:17:08;;;;;;;485.93;231.13;;;;;;;3.48;47.68;100327.53;6238868;22;20035;-62
2022/03/22 20:19:36;;;;;;;485.60;229.77;;;;;;;3.58;47.71;100325.38;6235318;22;20070;-63
2022/03/22 20:22:04;;;;;;;479.42;224.30;;;;;;;3.65;46.92;100326.44;6241345;22;20004;-60
2022/03/22 20:24:29;;;;;;;481.05;230.27;;;;;;;3.56;47.79;100329.53;6241923;22;20068;-60
2022/03/22 20:26:55;;;;;;;482.30;226.30;;;;;;;3.50;47.73;100336.91;6235821;23;20564;-61
2022/03/22 20:29:20;;;;;;;485.93;231.67;;;;;;;3.42;47.72;100334.88;6237032;22;20015;-61
2022/03/22 20:31:46;;;;;;;488.90;237.97;;;;;;;3.33;47.98;100322.75;6219977;22;20034;-60
2022/03/22 20:34:11;;;;;;;496.80;235.40;;;;;;;3.23;47.88;100336.72;6236903;22;20058;-61
2022/03/22 20:36:37;;;;;;;492.93;231.00;;;;;;;2.97;48.73;100309.53;6229863;22;20019;-61
2022/03/22 20:39:04;;;;;;;491.33;231.50;;;;;;;2.85;48.84;100315.81;6237018;22;20004;-63
2022/03/22 20:41:30;;;;;;;485.63;218.38;;;;;;;2.80;48.83;100313.09;6243722;23;20014;-62
2022/03/22 20:43:56;;;;;;;489.50;221.73;;;;;;;2.84;49.45;100331.84;6242292;22;20039;-62
2022/03/22 20:46:21;;;;;;;490.20;226.40;;;;;;;2.67;50.03;100314.28;6237787;22;20012;-62
2022/03/22 20:48:46;;;;;;;483.93;212.73;;;;;;;2.70;50.52;100327.09;6237208;23;20011;-62
2022/03/22 20:51:12;;;;;;;480.10;213.77;;;;;;;2.65;50.97;100323.50;6242908;23;20012;-62
2022/03/22 20:53:37;;;;;;;479.47;210.57;;;;;;;2.81;50.75;100329.16;6242872;23;20019;-61
2022/03/22 20:59:06;;;;;;;477.23;212.27;;;;;;;2.83;50.12;100308.19;6225819;22;20073;-60
2022/03/22 21:01:33;;;;;;;475.90;203.05;;;;;;;2.87;50.06;100329.41;6240715;22;20051;-62